Salem, VA (24153)

10:00 PM EDT on July 25, 2016 (GMT -0400)
The Cutting Edge | | Change Station

Elev 1014 ft 37.29 °N, 80.06 °W | Updated 7 seconds ago

Clear
Clear
77.8 °F
Feels Like 80 °F
N
0.0
Wind Variable Wind from West
Gusts 9.0 mph

Today
High -- | Low -- °F
--% Chance of Precip.
Yesterday
High -- | Low -- °F
Precip. -- in
Pressure 29.99 in
Visibility 10.0 miles
Clouds Clear
Heat Index 80 °F
Dew Point 76 °F
Humidity 94%
Rainfall in
Snow Depth Not available.
6:19 AM 8:33 PM
Waning Gibbous, 60% visible
METAR KROA 260154Z 27004KT 10SM CLR 26/24 A3004 RMK AO2 RAB02E15 SLP156 P0001 T02560244
Pressure 29.99 in
Visibility 10.0 miles
Clouds Clear
Heat Index 80 °F
Dew Point 76 °F
Humidity 94%
Rainfall in
Snow Depth Not available.
6:19 AM 8:33 PM
Waning Gibbous, 60% visible
METAR KROA 260154Z 27004KT 10SM CLR 26/24 A3004 RMK AO2 RAB02E15 SLP156 P0001 T02560244
Record highs are possible for parts of the Northeast Monday and Tuesday, as parts of the central U.S. take a little breather from the worst of summer's dog day heat.

Expansive high pressure in the upper atmosphere will focus on parts of the East and West this week, sending heat indices well into the triple digits from the Mid-Atlantic states into the South.

10-Day Weather Forecast

Almanac

Astronomy

Jul. 25, 2016 Rise Set
Actual Time
Civil Twilight
Nautical Twilight
Astronomical Twilight
Moon
Length of Visible Light
Length of Day
Tomorrow will be .
, % of the Moon is Illuminated

Today's Extremes

State Highs State Lows

Community

WunderPhotos

Upload Photos

1,927,497 photos uploaded!

WunderBlog® & News

Nearby

Air Quality

  Air Quality AQ Index Pollutant
Not available.

Snow Depth

Station Depth Elevation

Earthquake Activity

City Distance Mag. Time & Date
Minimum magnitude displayed is 2.5.

Coastal Water Temperatures

Place Temperature

Stations

Nearby Weather Stations

Station Location Temp. Windchill Dew Point Humidity Wind Precip. Elev Updated Type
                   

Watches & Warnings

There are currently no watches in effect.